createdAt,value
2022-12-24T00:01:38.136Z,5.10
2022-12-24T00:04:05.218Z,5.16
2022-12-24T00:06:32.082Z,5.09
2022-12-24T00:08:58.832Z,5.06
2022-12-24T00:11:25.881Z,5.08
2022-12-24T00:13:52.834Z,5.12
2022-12-24T00:16:19.701Z,5.06
2022-12-24T00:18:47.179Z,5.10
2022-12-24T00:21:15.923Z,5.11
2022-12-24T00:23:43.098Z,5.13
2022-12-24T00:26:09.855Z,5.13
2022-12-24T00:28:36.669Z,5.21
2022-12-24T00:31:11.669Z,5.18
2022-12-24T00:33:38.885Z,5.24
2022-12-24T00:36:06.389Z,5.24
2022-12-24T00:38:33.231Z,5.19
2022-12-24T00:41:04.820Z,5.20
2022-12-24T00:43:31.647Z,5.19
2022-12-24T00:46:00.484Z,5.10
2022-12-24T00:48:27.348Z,5.12
2022-12-24T00:50:54.303Z,5.02
2022-12-24T00:53:21.225Z,4.96
2022-12-24T00:55:47.958Z,5.05
2022-12-24T00:58:14.844Z,4.99
2022-12-24T01:00:41.612Z,4.99
2022-12-24T01:03:08.548Z,4.96
2022-12-24T01:05:35.354Z,4.99
2022-12-24T01:08:02.158Z,4.86
2022-12-24T01:10:29.058Z,4.95
2022-12-24T01:12:55.923Z,4.98
2022-12-24T01:15:22.679Z,4.96
2022-12-24T01:17:49.568Z,4.99
2022-12-24T01:20:17.209Z,4.91
2022-12-24T01:22:44.149Z,4.92
2022-12-24T01:25:11.302Z,4.93
2022-12-24T01:27:38.477Z,4.96
2022-12-24T01:30:07.132Z,4.92
2022-12-24T01:32:33.980Z,4.95
2022-12-24T01:35:00.747Z,4.84
2022-12-24T01:37:27.567Z,4.86
2022-12-24T01:40:14.254Z,4.80
2022-12-24T01:43:06.535Z,4.85
2022-12-24T01:45:52.216Z,4.86
2022-12-24T01:48:43.051Z,4.86
2022-12-24T01:51:27.918Z,4.84
2022-12-24T01:54:07.374Z,4.84
2022-12-24T01:56:35.991Z,4.80
2022-12-24T01:59:06.068Z,4.77
2022-12-24T02:01:33.160Z,4.80
2022-12-24T02:04:00.371Z,4.78
2022-12-24T02:06:27.405Z,4.77
2022-12-24T02:08:55.603Z,4.79
2022-12-24T02:11:22.732Z,4.77
2022-12-24T02:13:57.903Z,4.77
2022-12-24T02:16:39.705Z,4.82
2022-12-24T02:19:34.826Z,4.80
2022-12-24T02:22:09.668Z,4.74
2022-12-24T02:24:42.467Z,4.79
2022-12-24T02:27:33.624Z,4.74
2022-12-24T02:30:14.242Z,4.73
2022-12-24T02:33:00.153Z,4.74
2022-12-24T02:35:33.057Z,4.79
2022-12-24T02:38:42.386Z,4.71
2022-12-24T02:41:17.133Z,4.73
2022-12-24T02:43:46.145Z,4.84
2022-12-24T02:46:33.159Z,4.81
2022-12-24T02:49:00.737Z,4.79
2022-12-24T02:51:27.447Z,4.77
2022-12-24T02:53:54.281Z,4.80
2022-12-24T02:56:50.262Z,4.73
2022-12-24T02:59:55.693Z,4.78
2022-12-24T03:02:35.131Z,4.66
2022-12-24T03:05:17.382Z,4.75
2022-12-24T03:07:48.924Z,4.70
2022-12-24T03:10:24.406Z,4.73
2022-12-24T03:12:55.299Z,4.67
2022-12-24T03:15:24.217Z,4.70
2022-12-24T03:17:53.151Z,4.74
2022-12-24T03:20:23.633Z,4.76
2022-12-24T03:22:50.859Z,4.78
2022-12-24T03:25:20.839Z,4.85
2022-12-24T03:27:47.811Z,4.80
2022-12-24T03:30:15.747Z,4.81
2022-12-24T03:32:42.519Z,4.80
2022-12-24T03:35:09.470Z,4.82
2022-12-24T03:37:36.432Z,4.75
2022-12-24T03:40:05.070Z,4.77
2022-12-24T03:42:31.905Z,4.79
2022-12-24T03:44:58.677Z,4.79
2022-12-24T03:47:25.524Z,4.77
2022-12-24T03:49:52.665Z,4.76
2022-12-24T03:52:19.506Z,4.82
2022-12-24T03:54:46.265Z,4.85
2022-12-24T03:57:13.095Z,4.83
2022-12-24T03:59:39.784Z,4.84
2022-12-24T04:02:07.183Z,4.83
2022-12-24T04:07:41.443Z,4.82
2022-12-24T04:10:08.683Z,4.85
2022-12-24T04:12:35.851Z,4.94
2022-12-24T04:15:02.743Z,4.93
2022-12-24T04:17:29.643Z,4.90
2022-12-24T04:19:56.492Z,4.91
2022-12-24T04:22:23.404Z,4.95
2022-12-24T04:24:50.147Z,5.00
2022-12-24T04:27:17.603Z,4.98
2022-12-24T04:29:44.893Z,4.93
2022-12-24T04:32:11.931Z,4.94
2022-12-24T04:34:38.841Z,4.99
2022-12-24T04:37:05.781Z,4.97
2022-12-24T04:39:32.610Z,5.01
2022-12-24T04:41:59.492Z,5.02
2022-12-24T04:44:26.369Z,5.00
2022-12-24T04:46:53.177Z,5.00
2022-12-24T04:49:20.063Z,4.93
2022-12-24T04:51:46.994Z,4.92
2022-12-24T04:54:13.837Z,4.96
2022-12-24T04:56:40.675Z,4.96
2022-12-24T04:59:07.464Z,5.01
2022-12-24T05:01:34.461Z,4.97
2022-12-24T05:04:01.633Z,5.08
2022-12-24T05:06:32.531Z,4.93
2022-12-24T05:09:00.036Z,4.98
2022-12-24T05:11:27.268Z,5.00
2022-12-24T05:13:54.061Z,5.03
2022-12-24T05:16:22.855Z,4.95
2022-12-24T05:18:50.698Z,5.06
2022-12-24T05:21:19.995Z,5.09
2022-12-24T05:24:05.168Z,5.11
2022-12-24T05:26:44.875Z,5.15
2022-12-24T05:29:12.475Z,5.19
2022-12-24T05:31:40.411Z,5.21
2022-12-24T05:34:08.282Z,5.17
2022-12-24T05:36:35.337Z,5.20
2022-12-24T05:39:02.423Z,5.21
2022-12-24T05:41:29.318Z,5.21
2022-12-24T05:43:56.315Z,5.21
2022-12-24T05:46:24.392Z,5.22
2022-12-24T05:48:52.412Z,5.27
2022-12-24T05:51:22.416Z,5.24
2022-12-24T05:53:50.698Z,5.27
2022-12-24T05:56:22.819Z,5.27
2022-12-24T05:58:52.488Z,5.29
2022-12-24T06:01:20.080Z,5.26
2022-12-24T06:03:47.173Z,5.32
2022-12-24T06:06:17.782Z,5.33
2022-12-24T06:08:45.003Z,5.34
2022-12-24T06:11:14.397Z,5.32
2022-12-24T06:13:42.281Z,5.33
2022-12-24T06:16:12.716Z,5.36
2022-12-24T06:18:40.296Z,5.34
2022-12-24T06:21:07.571Z,5.35
2022-12-24T06:23:36.593Z,5.28
2022-12-24T06:26:04.662Z,5.37
2022-12-24T06:28:33.228Z,5.35
2022-12-24T06:31:03.949Z,5.28
2022-12-24T06:33:34.378Z,5.37
2022-12-24T06:36:01.487Z,5.40
2022-12-24T06:38:31.034Z,5.40
2022-12-24T06:40:57.916Z,5.51
2022-12-24T06:43:24.772Z,5.49
2022-12-24T06:45:51.649Z,5.49
2022-12-24T06:48:18.540Z,5.55
2022-12-24T06:50:45.452Z,5.49
2022-12-24T06:53:12.250Z,5.56
2022-12-24T06:55:39.173Z,5.54
2022-12-24T06:58:05.971Z,5.58
2022-12-24T07:00:32.931Z,5.59
2022-12-24T07:02:59.902Z,5.65
2022-12-24T07:05:27.191Z,5.65
2022-12-24T07:07:54.076Z,5.66
2022-12-24T07:10:21.733Z,5.73
2022-12-24T07:12:48.943Z,5.68
2022-12-24T07:15:16.913Z,5.64
2022-12-24T07:17:44.159Z,5.74
2022-12-24T07:20:14.779Z,5.67
2022-12-24T07:22:42.114Z,5.77
2022-12-24T07:25:09.556Z,5.64
2022-12-24T07:27:36.749Z,5.68
2022-12-24T07:30:04.416Z,5.75
2022-12-24T07:32:31.846Z,5.84
2022-12-24T07:34:58.942Z,5.73
2022-12-24T07:37:25.861Z,5.76
2022-12-24T07:39:52.715Z,5.83
2022-12-24T07:42:19.661Z,5.87
2022-12-24T07:44:46.454Z,5.81
2022-12-24T07:47:13.407Z,5.90
2022-12-24T07:49:40.187Z,5.88
2022-12-24T07:52:07.092Z,5.93
2022-12-24T07:54:34.305Z,5.96
2022-12-24T07:57:01.384Z,5.95
2022-12-24T07:59:28.148Z,5.96
2022-12-24T08:01:55.021Z,6.02
2022-12-24T08:04:22.041Z,6.06
2022-12-24T08:06:48.997Z,6.08
2022-12-24T08:09:16.028Z,6.09
2022-12-24T08:11:49.652Z,6.11
2022-12-24T08:14:18.783Z,6.11
2022-12-24T08:16:45.835Z,6.21
2022-12-24T08:19:12.720Z,6.23
2022-12-24T08:21:39.432Z,6.18
2022-12-24T08:24:06.580Z,6.17
2022-12-24T08:26:33.413Z,6.18
2022-12-24T08:29:00.207Z,6.14
2022-12-24T08:31:27.301Z,6.15
2022-12-24T08:33:55.480Z,6.19
2022-12-24T08:36:24.391Z,6.14
2022-12-24T08:38:51.193Z,6.08
2022-12-24T08:41:18.282Z,6.11
2022-12-24T08:43:45.118Z,6.05
2022-12-24T08:46:11.913Z,5.99
2022-12-24T08:48:38.942Z,5.98
2022-12-24T08:51:10.104Z,5.93
2022-12-24T08:53:37.698Z,5.91
2022-12-24T08:56:05.794Z,5.90
2022-12-24T08:58:32.982Z,5.89
2022-12-24T09:01:00.319Z,5.93
2022-12-24T09:03:28.178Z,5.90
2022-12-24T09:05:55.159Z,5.92
2022-12-24T09:08:22.068Z,5.85
2022-12-24T09:10:48.889Z,5.87
2022-12-24T09:13:15.780Z,5.84
2022-12-24T09:15:42.586Z,5.85
2022-12-24T09:18:10.378Z,5.78
2022-12-24T09:20:38.044Z,5.75
2022-12-24T09:23:06.283Z,5.77
2022-12-24T09:25:33.563Z,5.74
2022-12-24T09:28:00.423Z,5.82
2022-12-24T09:30:27.188Z,5.87
2022-12-24T09:32:54.086Z,5.96
2022-12-24T09:35:20.911Z,5.80
2022-12-24T09:37:47.699Z,5.73
2022-12-24T09:40:26.208Z,5.72
2022-12-24T09:42:54.674Z,5.64
2022-12-24T09:45:31.890Z,5.67
2022-12-24T09:48:20.058Z,5.73
2022-12-24T09:51:09.602Z,5.78
2022-12-24T09:53:56.082Z,5.70
2022-12-24T09:56:26.848Z,5.85
2022-12-24T09:58:58.114Z,5.80
2022-12-24T10:01:25.133Z,5.78
2022-12-24T10:03:52.215Z,5.67
2022-12-24T10:06:29.421Z,5.67
2022-12-24T10:09:05.643Z,5.70
2022-12-24T10:11:46.262Z,5.71
2022-12-24T10:14:32.746Z,5.76
2022-12-24T10:17:13.523Z,5.66
2022-12-24T10:19:49.123Z,5.75
2022-12-24T10:22:32.101Z,5.78
2022-12-24T10:25:09.866Z,5.65
2022-12-24T10:27:39.837Z,5.81
2022-12-24T10:30:17.470Z,5.79
2022-12-24T10:32:46.075Z,5.89
2022-12-24T10:35:15.890Z,5.94
2022-12-24T10:37:44.061Z,5.99
2022-12-24T10:40:18.764Z,5.93
2022-12-24T10:42:51.116Z,6.07
2022-12-24T10:45:22.412Z,6.01
2022-12-24T10:47:54.641Z,6.01
2022-12-24T10:50:43.064Z,6.08
2022-12-24T10:53:27.574Z,5.99
2022-12-24T10:56:02.504Z,6.05
2022-12-24T10:58:29.386Z,6.01
2022-12-24T11:00:56.181Z,5.95
2022-12-24T11:03:32.760Z,6.12
2022-12-24T11:06:21.412Z,6.13
2022-12-24T11:08:48.393Z,6.12
2022-12-24T11:11:18.029Z,6.10
2022-12-24T11:13:57.057Z,6.05
2022-12-24T11:16:35.748Z,6.04
2022-12-24T11:19:08.035Z,6.07
2022-12-24T11:21:38.188Z,6.12
2022-12-24T11:24:14.408Z,6.15
2022-12-24T11:26:43.247Z,6.19
2022-12-24T11:29:18.388Z,6.16
2022-12-24T11:31:45.844Z,6.13
2022-12-24T11:34:31.965Z,6.27
2022-12-24T11:37:14.814Z,6.21
2022-12-24T11:39:45.534Z,6.26
2022-12-24T11:42:41.779Z,6.40
2022-12-24T11:45:29.950Z,6.45
2022-12-24T11:47:58.025Z,6.45
2022-12-24T11:50:32.686Z,6.53
2022-12-24T11:53:03.609Z,6.48
2022-12-24T11:55:49.596Z,6.53
2022-12-24T11:58:35.094Z,6.55
2022-12-24T12:01:16.428Z,6.45
2022-12-24T12:03:47.592Z,6.56
2022-12-24T12:06:38.689Z,6.52
2022-12-24T12:09:15.437Z,6.57
2022-12-24T12:11:44.539Z,6.61
2022-12-24T12:14:20.304Z,6.69
2022-12-24T12:17:15.107Z,6.69
2022-12-24T12:19:50.773Z,6.89
2022-12-24T12:22:29.541Z,6.87
2022-12-24T12:24:57.222Z,6.97
2022-12-24T12:27:40.459Z,7.10
2022-12-24T12:30:15.881Z,7.22
2022-12-24T12:32:53.679Z,7.36
2022-12-24T12:35:35.354Z,7.47
2022-12-24T12:38:05.419Z,7.65
2022-12-24T12:40:58.468Z,7.91
2022-12-24T12:44:02.671Z,8.78
2022-12-24T12:46:55.313Z,9.28
2022-12-24T12:49:51.315Z,9.41
2022-12-24T12:52:42.385Z,9.74
2022-12-24T12:55:32.248Z,9.99
2022-12-24T12:58:08.603Z,10.06
2022-12-24T13:00:38.580Z,10.16
2022-12-24T13:03:31.629Z,10.36
2022-12-24T13:06:07.320Z,10.16
2022-12-24T13:08:52.669Z,10.05
2022-12-24T13:11:22.063Z,10.15
2022-12-24T13:14:07.537Z,10.08
2022-12-24T13:16:55.558Z,10.14
2022-12-24T13:19:40.305Z,9.92
2022-12-24T13:22:16.064Z,9.55
2022-12-24T13:24:51.761Z,9.19
2022-12-24T13:27:25.332Z,8.65
2022-12-24T13:30:01.058Z,9.14
2022-12-24T13:32:33.893Z,9.49
2022-12-24T13:35:00.613Z,8.97
2022-12-24T13:37:37.001Z,9.55
2022-12-24T13:40:06.652Z,9.79
2022-12-24T13:42:56.629Z,9.88
2022-12-24T13:45:29.809Z,9.96
2022-12-24T13:47:57.880Z,9.08
2022-12-24T13:50:41.808Z,8.74
2022-12-24T13:53:23.848Z,8.26
2022-12-24T13:56:03.552Z,7.92
2022-12-24T13:58:30.948Z,7.64
2022-12-24T14:01:03.653Z,7.62
2022-12-24T14:03:41.292Z,7.25
2022-12-24T14:06:11.201Z,7.20
2022-12-24T14:08:44.329Z,7.06
2022-12-24T14:11:17.017Z,7.12
2022-12-24T14:13:46.715Z,7.26
2022-12-24T14:16:16.081Z,7.00
2022-12-24T14:18:46.091Z,7.21
2022-12-24T14:21:25.668Z,7.11
2022-12-24T14:24:16.376Z,6.97
2022-12-24T14:26:49.534Z,6.84
2022-12-24T14:29:25.425Z,6.73
2022-12-24T14:31:53.716Z,6.74
2022-12-24T14:34:20.746Z,6.67
2022-12-24T14:36:48.654Z,6.56
2022-12-24T14:39:25.202Z,6.65
2022-12-24T14:42:08.235Z,6.71
2022-12-24T14:44:46.694Z,6.71
2022-12-24T14:47:17.102Z,6.80
2022-12-24T14:50:10.021Z,6.77
2022-12-24T14:53:06.394Z,6.60
2022-12-24T14:55:37.358Z,6.60
2022-12-24T14:58:36.907Z,6.66
2022-12-24T15:01:19.482Z,6.52
2022-12-24T15:03:46.533Z,6.48
2022-12-24T15:06:14.543Z,6.35
2022-12-24T15:08:49.007Z,6.26
2022-12-24T15:11:21.632Z,6.19
2022-12-24T15:13:51.147Z,6.23
2022-12-24T15:16:32.321Z,6.28
2022-12-24T15:19:02.820Z,6.27
2022-12-24T15:21:34.366Z,6.34
2022-12-24T15:24:01.236Z,6.43
2022-12-24T15:26:35.043Z,6.46
2022-12-24T15:29:03.946Z,6.60
2022-12-24T15:31:31.682Z,6.59
2022-12-24T15:34:02.056Z,6.47
2022-12-24T15:36:35.003Z,6.38
2022-12-24T15:39:08.911Z,6.36
2022-12-24T15:42:01.923Z,6.36
2022-12-24T15:44:32.612Z,6.44
2022-12-24T15:47:00.756Z,6.45
2022-12-24T15:49:29.289Z,6.56
2022-12-24T15:52:06.278Z,6.50
2022-12-24T15:54:34.295Z,6.47
2022-12-24T15:57:15.503Z,6.50
2022-12-24T15:59:42.549Z,6.43
2022-12-24T16:02:27.385Z,6.51
2022-12-24T16:04:54.546Z,6.56
2022-12-24T16:07:25.889Z,6.60
2022-12-24T16:09:52.848Z,6.66
2022-12-24T16:12:24.031Z,6.72
2022-12-24T16:15:00.614Z,6.89
2022-12-24T16:17:30.168Z,6.88
2022-12-24T16:20:01.025Z,6.85
2022-12-24T16:22:35.299Z,6.91
2022-12-24T16:25:18.163Z,6.95
2022-12-24T16:27:45.027Z,6.86
2022-12-24T16:30:12.415Z,6.93
2022-12-24T16:32:40.028Z,6.94
2022-12-24T16:35:13.032Z,6.88
2022-12-24T16:37:39.995Z,6.88
2022-12-24T16:40:11.378Z,6.97
2022-12-24T16:42:59.958Z,7.00
2022-12-24T16:45:28.920Z,7.05
2022-12-24T16:47:59.471Z,7.04
2022-12-24T16:50:28.517Z,7.14
2022-12-24T16:52:55.335Z,7.17
2022-12-24T16:55:22.151Z,7.13
2022-12-24T16:57:48.940Z,7.24
2022-12-24T17:00:18.570Z,7.17
2022-12-24T17:02:46.033Z,7.24
2022-12-24T17:05:13.207Z,7.25
2022-12-24T17:07:43.798Z,7.33
2022-12-24T17:10:12.309Z,7.36
2022-12-24T17:12:39.078Z,7.28
2022-12-24T17:15:06.511Z,7.27
2022-12-24T17:17:33.390Z,7.34
2022-12-24T17:20:00.285Z,7.38
2022-12-24T17:22:30.198Z,7.42
2022-12-24T17:24:57.240Z,7.41
2022-12-24T17:27:24.220Z,7.50
2022-12-24T17:29:51.104Z,7.49
2022-12-24T17:32:18.070Z,7.53
2022-12-24T17:34:45.117Z,7.54
2022-12-24T17:37:11.959Z,7.54
2022-12-24T17:39:38.948Z,7.54
2022-12-24T17:42:05.851Z,7.52
2022-12-24T17:44:32.781Z,7.62
2022-12-24T17:46:59.969Z,7.57
2022-12-24T17:49:26.981Z,7.55
2022-12-24T17:51:53.781Z,7.61
2022-12-24T17:54:20.665Z,7.59
2022-12-24T17:56:47.490Z,7.58
2022-12-24T17:59:14.504Z,7.62
2022-12-24T18:01:41.516Z,7.59
2022-12-24T18:04:08.688Z,7.61
2022-12-24T18:06:35.492Z,7.60
2022-12-24T18:09:03.188Z,7.62
2022-12-24T18:11:35.284Z,7.59
2022-12-24T18:14:03.625Z,7.60
2022-12-24T18:16:38.908Z,7.63
2022-12-24T18:19:08.337Z,7.64
2022-12-24T18:21:35.183Z,7.67
2022-12-24T18:24:02.204Z,7.76
2022-12-24T18:26:30.374Z,7.68
2022-12-24T18:28:58.589Z,7.68
2022-12-24T18:31:26.864Z,7.69
2022-12-24T18:33:56.797Z,7.64
2022-12-24T18:36:24.152Z,7.58
2022-12-24T18:38:51.738Z,7.65
2022-12-24T18:41:27.022Z,7.62
2022-12-24T18:43:54.333Z,7.62
2022-12-24T18:46:26.151Z,7.57
2022-12-24T18:48:55.173Z,7.58
2022-12-24T18:51:23.411Z,7.56
2022-12-24T18:53:50.953Z,7.55
2022-12-24T18:56:23.662Z,7.61
2022-12-24T18:58:53.993Z,7.66
2022-12-24T19:01:24.004Z,7.58
2022-12-24T19:03:51.071Z,7.63
2022-12-24T19:06:18.219Z,7.69
2022-12-24T19:08:57.179Z,7.62
2022-12-24T19:11:25.259Z,7.62
2022-12-24T19:13:53.224Z,7.61
2022-12-24T19:16:20.834Z,7.62
2022-12-24T19:18:47.864Z,7.63
2022-12-24T19:21:15.727Z,7.67
2022-12-24T19:23:42.852Z,7.61
2022-12-24T19:26:11.035Z,7.59
2022-12-24T19:28:38.037Z,7.58
2022-12-24T19:31:07.374Z,7.54
2022-12-24T19:33:43.378Z,7.60
2022-12-24T19:36:13.755Z,7.60
2022-12-24T19:38:41.181Z,7.59
2022-12-24T19:41:23.797Z,7.61
2022-12-24T19:43:53.167Z,7.60
2022-12-24T19:46:23.448Z,7.60
2022-12-24T19:48:52.219Z,7.56
2022-12-24T19:51:19.759Z,7.59
2022-12-24T19:53:47.951Z,7.57
2022-12-24T19:56:16.172Z,7.57
2022-12-24T19:58:43.258Z,7.56
2022-12-24T20:01:16.480Z,7.58
2022-12-24T20:03:44.803Z,7.51
2022-12-24T20:06:12.703Z,7.51
2022-12-24T20:08:39.867Z,7.58
2022-12-24T20:11:09.207Z,7.54
2022-12-24T20:13:37.558Z,7.56
2022-12-24T20:16:23.064Z,7.57
2022-12-24T20:18:57.708Z,7.57
2022-12-24T20:21:25.444Z,7.58
2022-12-24T20:23:52.345Z,7.60
2022-12-24T20:26:22.326Z,7.66
2022-12-24T20:28:49.666Z,7.67
2022-12-24T20:31:21.999Z,7.67
2022-12-24T20:33:49.303Z,7.69
2022-12-24T20:36:18.215Z,7.72
2022-12-24T20:38:45.333Z,7.71
2022-12-24T20:41:14.183Z,7.70
2022-12-24T20:43:47.376Z,7.69
2022-12-24T20:46:18.363Z,7.70
2022-12-24T20:48:45.889Z,7.69
2022-12-24T20:51:23.789Z,7.67
2022-12-24T20:53:57.872Z,7.66
2022-12-24T20:56:26.230Z,7.66
2022-12-24T20:58:53.160Z,7.64
2022-12-24T21:01:24.850Z,7.73
2022-12-24T21:03:53.737Z,7.71
2022-12-24T21:06:20.847Z,7.74
2022-12-24T21:08:51.782Z,7.68
2022-12-24T21:11:37.750Z,7.71
2022-12-24T21:14:04.696Z,7.57
2022-12-24T21:16:32.712Z,7.58
2022-12-24T21:18:59.763Z,7.56
2022-12-24T21:21:26.664Z,7.55
2022-12-24T21:23:53.532Z,7.47
2022-12-24T21:26:20.378Z,7.43
2022-12-24T21:28:47.351Z,7.49
2022-12-24T21:31:14.883Z,7.51
2022-12-24T21:33:42.259Z,7.56
2022-12-24T21:36:11.158Z,7.49
2022-12-24T21:38:37.994Z,7.46
2022-12-24T21:41:07.445Z,7.42
2022-12-24T21:43:35.494Z,7.44
2022-12-24T21:46:17.538Z,7.41
2022-12-24T21:49:03.583Z,7.37
2022-12-24T21:51:30.949Z,7.36
2022-12-24T21:54:16.663Z,7.36
2022-12-24T21:57:02.377Z,7.27
2022-12-24T21:59:29.446Z,7.21
2022-12-24T22:01:57.169Z,7.24
2022-12-24T22:04:24.890Z,7.20
2022-12-24T22:07:10.593Z,7.15
2022-12-24T22:09:57.392Z,7.15
2022-12-24T22:12:24.984Z,7.07
2022-12-24T22:14:52.143Z,7.07
2022-12-24T22:17:24.866Z,7.00
2022-12-24T22:19:52.449Z,6.94
2022-12-24T22:22:19.212Z,6.93
2022-12-24T22:24:46.176Z,6.92
2022-12-24T22:27:12.979Z,6.93
2022-12-24T22:29:39.886Z,6.97
2022-12-24T22:32:06.788Z,7.03
2022-12-24T22:34:34.161Z,7.02
2022-12-24T22:37:00.905Z,7.06
2022-12-24T22:39:27.845Z,7.01
2022-12-24T22:41:54.687Z,7.08
2022-12-24T22:44:21.523Z,7.06
2022-12-24T22:46:48.319Z,7.10
2022-12-24T22:49:15.214Z,7.13
2022-12-24T22:51:41.989Z,7.00
2022-12-24T22:54:08.804Z,7.07
2022-12-24T22:56:40.704Z,7.01
2022-12-24T22:59:09.185Z,6.95
2022-12-24T23:01:38.575Z,6.99
2022-12-24T23:04:07.473Z,7.06
2022-12-24T23:06:34.479Z,7.04
2022-12-24T23:09:02.775Z,6.96
2022-12-24T23:11:29.587Z,6.93
2022-12-24T23:14:15.208Z,7.04
2022-12-24T23:16:42.042Z,7.08
2022-12-24T23:19:09.109Z,7.14
2022-12-24T23:21:36.798Z,7.01
2022-12-24T23:24:03.780Z,7.07
2022-12-24T23:26:30.692Z,7.06
2022-12-24T23:28:57.709Z,7.07
2022-12-24T23:31:25.851Z,7.11
2022-12-24T23:33:53.041Z,6.98
2022-12-24T23:36:20.136Z,7.10
2022-12-24T23:38:47.345Z,7.11
2022-12-24T23:41:17.656Z,7.07
2022-12-24T23:43:44.640Z,6.97
2022-12-24T23:46:15.796Z,7.06
2022-12-24T23:48:42.861Z,7.11
2022-12-24T23:51:13.414Z,7.11
2022-12-24T23:53:40.365Z,7.07
2022-12-24T23:56:07.910Z,6.91
2022-12-24T23:58:34.944Z,7.09
